createdAt,value
2018-11-21T00:00:25.775Z,5.12
2018-11-21T00:01:40.320Z,5.01
2018-11-21T00:02:54.141Z,5.01
2018-11-21T00:04:08.579Z,5.02
2018-11-21T00:05:23.024Z,4.92
2018-11-21T00:06:37.742Z,4.87
2018-11-21T00:08:07.367Z,4.76
2018-11-21T00:09:22.278Z,4.92
2018-11-21T00:10:36.979Z,4.86
2018-11-21T00:11:51.627Z,4.86
2018-11-21T00:13:06.350Z,4.79
2018-11-21T00:14:20.840Z,4.83
2018-11-21T00:15:35.637Z,4.79
2018-11-21T00:17:06.017Z,4.76
2018-11-21T00:18:21.397Z,4.7
2018-11-21T00:19:36.075Z,4.74
2018-11-21T00:20:50.548Z,4.75
2018-11-21T00:22:04.992Z,4.78
2018-11-21T00:23:19.984Z,4.84
2018-11-21T00:24:35.001Z,4.78
2018-11-21T00:25:49.440Z,4.68
2018-11-21T00:27:05.987Z,4.78
2018-11-21T00:28:20.423Z,4.7
2018-11-21T00:29:34.437Z,4.64
2018-11-21T00:30:48.981Z,4.71
2018-11-21T00:32:02.893Z,4.7
2018-11-21T00:33:17.048Z,4.68
2018-11-21T00:34:31.212Z,4.67
2018-11-21T00:35:46.002Z,4.75
2018-11-21T00:37:00.239Z,4.68
2018-11-21T00:38:14.981Z,4.75
2018-11-21T00:39:29.436Z,4.71
2018-11-21T00:40:44.102Z,4.67
2018-11-21T00:41:58.611Z,4.68
2018-11-21T00:43:28.571Z,4.71
2018-11-21T00:44:43.489Z,4.79
2018-11-21T00:45:58.364Z,4.75
2018-11-21T00:47:13.392Z,4.7
2018-11-21T00:48:28.682Z,4.7
2018-11-21T00:49:42.718Z,4.75
2018-11-21T00:50:57.391Z,4.61
2018-11-21T00:52:11.427Z,4.52
2018-11-21T00:53:25.573Z,4.56
2018-11-21T00:54:40.592Z,4.45
2018-11-21T00:55:54.525Z,4.53
2018-11-21T00:57:09.073Z,4.56
2018-11-21T00:58:23.460Z,4.53
2018-11-21T00:59:37.702Z,4.42
2018-11-21T01:00:52.486Z,4.52
2018-11-21T01:02:06.150Z,4.52
2018-11-21T01:03:20.421Z,4.56
2018-11-21T01:04:34.931Z,4.56
2018-11-21T01:05:48.876Z,4.49
2018-11-21T01:07:03.666Z,4.52
2018-11-21T01:08:18.126Z,4.5
2018-11-21T01:09:32.620Z,4.45
2018-11-21T01:10:47.250Z,4.48
2018-11-21T01:12:01.792Z,4.4
2018-11-21T01:13:16.172Z,4.39
2018-11-21T01:14:31.809Z,4.28
2018-11-21T01:15:45.979Z,4.36
2018-11-21T01:17:00.780Z,4.27
2018-11-21T01:18:14.584Z,4.27
2018-11-21T01:19:29.829Z,4.27
2018-11-21T01:20:44.324Z,4.3
2018-11-21T01:21:58.704Z,4.34
2018-11-21T01:23:28.079Z,4.27
2018-11-21T01:24:42.891Z,4.32
2018-11-21T01:25:57.873Z,4.38
2018-11-21T01:27:30.329Z,4.25
2018-11-21T01:28:45.724Z,4.38
2018-11-21T01:30:00.398Z,4.34
2018-11-21T01:31:15.107Z,4.32
2018-11-21T01:32:29.324Z,4.28
2018-11-21T01:33:44.104Z,4.28
2018-11-21T01:34:58.812Z,4.38
2018-11-21T01:36:26.125Z,4.42
2018-11-21T01:37:40.496Z,4.45
2018-11-21T01:38:55.611Z,4.39
2018-11-21T01:40:10.083Z,4.38
2018-11-21T01:41:24.564Z,4.32
2018-11-21T01:42:39.543Z,4.32
2018-11-21T01:43:54.302Z,4.25
2018-11-21T01:45:07.767Z,4.32
2018-11-21T01:46:21.940Z,4.24
2018-11-21T01:47:36.367Z,4.36
2018-11-21T01:48:50.517Z,4.39
2018-11-21T01:50:05.838Z,4.28
2018-11-21T01:51:20.296Z,4.28
2018-11-21T01:52:34.744Z,4.28
2018-11-21T01:53:49.414Z,4.31
2018-11-21T01:55:03.807Z,4.32
2018-11-21T01:56:19.107Z,4.3
2018-11-21T01:57:48.100Z,4.2
2018-11-21T01:59:02.571Z,4.18
2018-11-21T02:00:17.509Z,4.21
2018-11-21T02:01:32.320Z,4.1
2018-11-21T02:02:47.307Z,4.14
2018-11-21T02:04:01.472Z,4.16
2018-11-21T02:05:15.786Z,4.14
2018-11-21T02:06:30.012Z,4.18
2018-11-21T02:07:44.248Z,4.12
2018-11-21T02:08:58.992Z,4.18
2018-11-21T02:10:12.977Z,4.16
2018-11-21T02:11:27.139Z,4.16
2018-11-21T02:12:42.246Z,4.13
2018-11-21T02:13:56.837Z,4.18
2018-11-21T02:15:11.820Z,4.13
2018-11-21T02:16:25.984Z,4.13
2018-11-21T02:17:40.151Z,4.09
2018-11-21T02:18:54.601Z,4.06
2018-11-21T02:20:08.893Z,4.06
2018-11-21T02:21:23.590Z,4.13
2018-11-21T02:22:37.832Z,4.07
2018-11-21T02:23:52.514Z,4.09
2018-11-21T02:25:07.095Z,4.09
2018-11-21T02:26:21.871Z,4.07
2018-11-21T02:27:36.477Z,4.12
2018-11-21T02:28:51.416Z,4.09
2018-11-21T02:30:05.621Z,4.12
2018-11-21T02:31:20.056Z,4.07
2018-11-21T02:32:35.033Z,4.06
2018-11-21T02:33:49.629Z,4.09
2018-11-21T02:35:04.471Z,4.06
2018-11-21T02:36:18.917Z,4.02
2018-11-21T02:37:32.835Z,3.94
2018-11-21T02:38:47.690Z,3.99
2018-11-21T02:40:02.574Z,4
2018-11-21T02:41:17.063Z,4.03
2018-11-21T02:42:31.251Z,4.02
2018-11-21T02:43:46.389Z,4.02
2018-11-21T02:45:00.610Z,3.95
2018-11-21T02:46:15.722Z,3.95
2018-11-21T02:47:30.466Z,4
2018-11-21T02:48:44.507Z,3.96
2018-11-21T02:49:58.163Z,4
2018-11-21T02:51:12.606Z,3.95
2018-11-21T02:52:26.825Z,3.95
2018-11-21T02:53:41.359Z,3.96
2018-11-21T02:54:56.083Z,3.88
2018-11-21T02:56:10.476Z,3.82
2018-11-21T02:57:25.045Z,3.88
2018-11-21T02:58:40.157Z,3.84
2018-11-21T02:59:54.487Z,3.77
2018-11-21T03:01:09.493Z,3.81
2018-11-21T03:02:24.204Z,3.76
2018-11-21T03:03:39.084Z,3.84
2018-11-21T03:04:54.075Z,3.76
2018-11-21T03:06:08.535Z,3.74
2018-11-21T03:07:23.450Z,3.86
2018-11-21T03:08:37.948Z,3.77
2018-11-21T03:09:52.383Z,3.73
2018-11-21T03:11:07.334Z,3.76
2018-11-21T03:12:21.903Z,3.67
2018-11-21T03:13:36.332Z,3.68
2018-11-21T03:14:50.883Z,3.74
2018-11-21T03:16:05.558Z,3.71
2018-11-21T03:17:20.378Z,3.66
2018-11-21T03:18:35.242Z,3.67
2018-11-21T03:19:49.248Z,3.67
2018-11-21T03:21:03.339Z,3.7
2018-11-21T03:22:18.273Z,3.55
2018-11-21T03:23:33.224Z,3.56
2018-11-21T03:24:47.381Z,3.59
2018-11-21T03:26:16.537Z,3.66
2018-11-21T03:27:30.790Z,3.63
2018-11-21T03:28:45.169Z,3.67
2018-11-21T03:29:59.706Z,3.66
2018-11-21T03:31:14.398Z,3.64
2018-11-21T03:32:29.097Z,3.68
2018-11-21T03:33:43.805Z,3.66
2018-11-21T03:35:11.867Z,3.73
2018-11-21T03:36:26.318Z,3.7
2018-11-21T03:37:40.636Z,3.74
2018-11-21T03:38:55.041Z,3.74
2018-11-21T03:40:09.240Z,3.7
2018-11-21T03:41:24.221Z,3.7
2018-11-21T03:42:38.892Z,3.68
2018-11-21T03:43:53.453Z,3.67
2018-11-21T03:45:22.956Z,3.73
2018-11-21T03:46:38.152Z,3.74
2018-11-21T03:47:52.406Z,3.73
2018-11-21T03:49:08.117Z,3.78
2018-11-21T03:50:22.899Z,3.89
2018-11-21T03:51:37.186Z,3.96
2018-11-21T03:52:51.871Z,4.06
2018-11-21T03:54:06.044Z,4.09
2018-11-21T03:55:20.315Z,4.1
2018-11-21T03:56:34.718Z,4.2
2018-11-21T03:57:49.165Z,4.28
2018-11-21T03:59:03.926Z,4.28
2018-11-21T04:00:18.670Z,4.22
2018-11-21T04:01:33.092Z,4.1
2018-11-21T04:02:47.770Z,4.12
2018-11-21T04:04:02.213Z,4.06
2018-11-21T04:05:16.710Z,3.94
2018-11-21T04:06:31.089Z,3.82
2018-11-21T04:07:45.569Z,3.99
2018-11-21T04:08:59.486Z,3.78
2018-11-21T04:10:13.259Z,3.77
2018-11-21T04:11:28.159Z,3.7
2018-11-21T04:12:42.776Z,3.63
2018-11-21T04:13:57.658Z,3.59
2018-11-21T04:15:12.734Z,3.5
2018-11-21T04:16:27.169Z,3.55
2018-11-21T04:17:42.184Z,3.49
2018-11-21T04:18:56.368Z,3.41
2018-11-21T04:20:10.731Z,3.41
2018-11-21T04:21:25.178Z,3.43
2018-11-21T04:22:39.441Z,3.48
2018-11-21T04:23:53.688Z,3.37
2018-11-21T04:25:07.860Z,3.4
2018-11-21T04:26:21.888Z,3.48
2018-11-21T04:27:37.026Z,3.58
2018-11-21T04:28:51.615Z,3.64
2018-11-21T04:30:05.739Z,3.56
2018-11-21T04:31:19.653Z,3.56
2018-11-21T04:32:33.706Z,3.56
2018-11-21T04:33:48.336Z,3.63
2018-11-21T04:35:02.776Z,3.71
2018-11-21T04:36:17.080Z,3.68
2018-11-21T04:37:32.336Z,3.7
2018-11-21T04:38:48.364Z,3.77
2018-11-21T04:40:03.235Z,3.66
2018-11-21T04:41:17.792Z,3.76
2018-11-21T04:42:32.009Z,3.73
2018-11-21T04:43:46.016Z,3.77
2018-11-21T04:45:00.182Z,3.77
2018-11-21T04:46:14.590Z,3.77
2018-11-21T04:47:28.979Z,3.74
2018-11-21T04:48:44.895Z,3.81
2018-11-21T04:49:59.019Z,3.77
2018-11-21T04:51:13.252Z,3.76
2018-11-21T04:52:27.853Z,3.58
2018-11-21T04:53:42.056Z,3.58
2018-11-21T04:54:56.401Z,3.52
2018-11-21T04:57:40.684Z,3.55
2018-11-21T04:58:55.552Z,3.45
2018-11-21T05:00:09.773Z,3.31
2018-11-21T05:01:24.598Z,3.31
2018-11-21T05:02:40.284Z,3.16
2018-11-21T05:03:54.999Z,3.15
2018-11-21T05:05:24.295Z,3.08
2018-11-21T05:06:39.759Z,3.01
2018-11-21T05:07:54.317Z,3.01
2018-11-21T05:09:09.017Z,3.01
2018-11-21T05:10:23.360Z,3.09
2018-11-21T05:11:38.444Z,3.13
2018-11-21T05:12:53.287Z,3.15
2018-11-21T05:14:22.313Z,3.09
2018-11-21T05:15:37.486Z,3.05
2018-11-21T05:16:52.088Z,3.01
2018-11-21T05:18:07.021Z,2.95
2018-11-21T05:19:22.113Z,3.05
2018-11-21T05:20:36.118Z,3.03
2018-11-21T05:21:50.320Z,3.05
2018-11-21T05:23:05.211Z,3.01
2018-11-21T05:24:22.339Z,2.98
2018-11-21T05:25:36.599Z,3.09
2018-11-21T05:26:51.538Z,3.03
2018-11-21T05:28:06.375Z,3.08
2018-11-21T05:29:20.633Z,3
2018-11-21T05:30:35.329Z,2.98
2018-11-21T05:31:49.304Z,3.03
2018-11-21T05:33:03.850Z,3.01
2018-11-21T05:34:18.004Z,3.08
2018-11-21T05:35:31.957Z,3.18
2018-11-21T05:36:46.665Z,3.19
2018-11-21T05:38:00.928Z,3.19
2018-11-21T05:39:15.392Z,3.27
2018-11-21T05:40:29.860Z,3.36
2018-11-21T05:41:44.094Z,3.27
2018-11-21T05:42:59.102Z,3.37
2018-11-21T05:44:13.306Z,3.33
2018-11-21T05:45:28.031Z,3.4
2018-11-21T05:46:42.743Z,3.41
2018-11-21T05:47:56.697Z,3.43
2018-11-21T05:49:10.904Z,3.53
2018-11-21T05:50:25.613Z,3.58
2018-11-21T05:51:39.681Z,3.53
2018-11-21T05:52:53.606Z,3.55
2018-11-21T05:54:08.819Z,3.61
2018-11-21T05:55:24.590Z,3.56
2018-11-21T05:56:39.022Z,3.53
2018-11-21T05:57:52.954Z,3.41
2018-11-21T05:59:07.686Z,3.37
2018-11-21T06:00:23.004Z,3.45
2018-11-21T06:01:37.073Z,3.33
2018-11-21T06:02:52.006Z,3.34
2018-11-21T06:04:06.413Z,3.33
2018-11-21T06:05:20.405Z,3.33
2018-11-21T06:06:34.588Z,3.24
2018-11-21T06:07:50.037Z,3.29
2018-11-21T06:09:04.616Z,3.21
2018-11-21T06:10:19.059Z,3.26
2018-11-21T06:11:32.754Z,3.12
2018-11-21T06:12:46.943Z,3.15
2018-11-21T06:14:01.425Z,3.21
2018-11-21T06:15:15.500Z,3.19
2018-11-21T06:16:30.241Z,3.13
2018-11-21T06:17:50.321Z,3.21
2018-11-21T06:19:04.254Z,3.22
2018-11-21T06:20:34.646Z,3.26
2018-11-21T06:21:49.227Z,3.34
2018-11-21T06:23:03.636Z,3.34
2018-11-21T06:24:34.385Z,3.41
2018-11-21T06:25:49.035Z,3.5
2018-11-21T06:27:03.482Z,3.49
2018-11-21T06:28:18.985Z,3.48
2018-11-21T06:29:33.205Z,3.53
2018-11-21T06:30:47.836Z,3.56
2018-11-21T06:32:02.332Z,3.52
2018-11-21T06:33:24.473Z,3.64
2018-11-21T06:34:38.469Z,3.59
2018-11-21T06:35:53.472Z,3.59
2018-11-21T06:37:08.180Z,3.55
2018-11-21T06:38:22.994Z,3.56
2018-11-21T06:39:37.958Z,3.7
2018-11-21T06:40:52.391Z,3.71
2018-11-21T06:42:07.130Z,3.66
2018-11-21T06:43:21.894Z,3.68
2018-11-21T06:44:36.505Z,3.81
2018-11-21T06:45:51.170Z,3.73
2018-11-21T06:47:05.376Z,3.76
2018-11-21T06:48:19.352Z,3.86
2018-11-21T06:51:46.522Z,3.81
2018-11-21T06:53:15.361Z,3.85
2018-11-21T06:54:29.523Z,3.85
2018-11-21T06:55:44.471Z,3.92
2018-11-21T06:57:43.003Z,3.88
2018-11-21T06:59:02.454Z,3.94
2018-11-21T07:00:17.475Z,3.95
2018-11-21T07:01:32.146Z,3.99
2018-11-21T07:08:26.237Z,4.02
2018-11-21T07:09:40.303Z,4.04
2018-11-21T07:10:54.971Z,3.96
2018-11-21T07:12:09.929Z,4.09
2018-11-21T07:13:24.104Z,4.09
2018-11-21T07:15:22.670Z,4.12
2018-11-21T07:16:37.425Z,4.21
2018-11-21T07:17:52.550Z,4.16
2018-11-21T07:19:51.159Z,4.13
2018-11-21T07:21:06.054Z,4.16
2018-11-21T07:22:20.799Z,4.12
2018-11-21T07:23:35.338Z,4.06
2018-11-21T07:24:50.832Z,4.06
2018-11-21T07:26:05.750Z,4.03
2018-11-21T07:27:19.728Z,4.04
2018-11-21T07:28:34.025Z,4.16
2018-11-21T07:29:48.486Z,4.02
2018-11-21T07:31:02.978Z,4.12
2018-11-21T07:32:17.096Z,4.09
2018-11-21T07:33:30.394Z,4.06
2018-11-21T07:34:45.314Z,4.06
2018-11-21T07:36:00.175Z,4.18
2018-11-21T07:37:14.325Z,4.24
2018-11-21T07:38:29.307Z,4.21
2018-11-21T07:39:43.581Z,4.12
2018-11-21T07:40:59.140Z,4.2
2018-11-21T07:42:13.862Z,4.31
2018-11-21T07:43:43.297Z,4.2
2018-11-21T07:44:57.742Z,4.14
2018-11-21T07:46:12.395Z,4.14
2018-11-21T07:47:31.456Z,4.14
2018-11-21T07:49:00.532Z,4.07
2018-11-21T07:50:14.615Z,4.2
2018-11-21T07:51:29.574Z,4.14
2018-11-21T07:52:44.301Z,4.24
2018-11-21T07:53:58.739Z,4.27
2018-11-21T07:55:12.939Z,4.28
2018-11-21T07:56:27.920Z,4.14
2018-11-21T07:57:42.375Z,4.18
2018-11-21T07:58:56.568Z,4.16
2018-11-21T08:00:11.244Z,4.16
2018-11-21T08:01:26.026Z,4.14
2018-11-21T08:02:40.844Z,4.3
2018-11-21T08:03:55.672Z,4.3
2018-11-21T08:05:10.034Z,4.28
2018-11-21T08:06:24.466Z,4.32
2018-11-21T08:07:38.591Z,4.27
2018-11-21T08:08:53.180Z,4.36
2018-11-21T08:10:08.613Z,4.39
2018-11-21T08:11:23.641Z,4.45
2018-11-21T08:12:37.563Z,4.48
2018-11-21T08:13:51.505Z,4.56
2018-11-21T08:15:06.209Z,4.52
2018-11-21T08:16:27.090Z,4.5
2018-11-21T08:17:42.085Z,4.52
2018-11-21T08:18:56.628Z,4.39
2018-11-21T08:20:10.837Z,4.46
2018-11-21T08:21:25.621Z,4.53
2018-11-21T08:22:40.111Z,4.46
2018-11-21T08:23:55.610Z,4.49
2018-11-21T08:25:09.369Z,4.38
2018-11-21T08:26:24.522Z,4.53
2018-11-21T08:27:38.731Z,4.5
2018-11-21T08:28:53.432Z,4.45
2018-11-21T08:30:07.633Z,4.49
2018-11-21T08:31:21.636Z,4.42
2018-11-21T08:33:20.415Z,4.57
2018-11-21T08:34:35.065Z,4.49
2018-11-21T08:35:49.702Z,4.57
2018-11-21T08:37:04.327Z,4.52
2018-11-21T08:38:19.318Z,4.6
2018-11-21T08:40:32.273Z,4.66
2018-11-21T08:41:47.214Z,4.7
2018-11-21T08:43:18.887Z,4.86
2018-11-21T08:44:34.189Z,4.86
2018-11-21T08:46:47.720Z,4.75
2018-11-21T08:48:02.338Z,4.71
2018-11-21T08:49:17.091Z,4.82
2018-11-21T08:52:10.912Z,4.92
2018-11-21T08:53:25.233Z,4.9
2018-11-21T08:54:39.146Z,4.95
2018-11-21T08:55:53.140Z,5.07
2018-11-21T08:57:22.590Z,5.04
2018-11-21T08:58:36.648Z,5.08
2018-11-21T08:59:51.160Z,5.22
2018-11-21T09:01:05.932Z,5.23
2018-11-21T09:03:04.251Z,5.1
2018-11-21T09:04:18.629Z,5.23
2018-11-21T09:05:32.665Z,5.07
2018-11-21T09:06:46.873Z,5.07
2018-11-21T09:08:45.424Z,5.01
2018-11-21T09:10:00.315Z,5.1
2018-11-21T09:11:14.758Z,5.19
2018-11-21T09:12:29.588Z,5.18
2018-11-21T09:13:43.766Z,5.22
2018-11-21T09:14:58.655Z,5.08
2018-11-21T09:16:13.168Z,5
2018-11-21T09:17:27.975Z,5.13
2018-11-21T09:19:41.158Z,4.98
2018-11-21T09:20:55.547Z,5.02
2018-11-21T09:22:09.538Z,5.13
2018-11-21T09:23:23.530Z,5.1
2018-11-21T09:24:38.028Z,5.12
2018-11-21T09:25:53.234Z,5.15
2018-11-21T09:27:07.837Z,5
2018-11-21T09:28:23.037Z,5
2018-11-21T09:29:37.929Z,4.97
2018-11-21T09:30:53.248Z,5.12
2018-11-21T09:32:07.698Z,5.12
2018-11-21T09:33:22.588Z,5.19
2018-11-21T09:34:37.728Z,5.22
2018-11-21T09:35:52.006Z,5.26
2018-11-21T09:37:07.122Z,5.2
2018-11-21T09:38:21.770Z,5.18
2018-11-21T09:39:36.827Z,5.15
2018-11-21T09:40:51.760Z,5.15
2018-11-21T09:42:22.378Z,5.18
2018-11-21T09:43:40.528Z,5.22
2018-11-21T09:44:56.404Z,5.2
2018-11-21T09:46:11.183Z,5.2
2018-11-21T09:47:24.931Z,5.26
2018-11-21T09:48:40.652Z,5.36
2018-11-21T09:49:55.975Z,5.29
2018-11-21T09:51:27.385Z,5.18
2018-11-21T09:52:43.327Z,5.26
2018-11-21T09:53:58.708Z,5.37
2018-11-21T09:55:28.061Z,5.36
2018-11-21T09:56:42.577Z,5.38
2018-11-21T09:57:57.351Z,5.46
2018-11-21T09:59:11.501Z,5.43
2018-11-21T10:00:26.493Z,5.36
2018-11-21T10:01:41.216Z,5.55
2018-11-21T10:03:07.666Z,5.58
2018-11-21T10:04:21.957Z,5.62
2018-11-21T10:05:37.328Z,5.69
2018-11-21T10:06:51.936Z,5.47
2018-11-21T10:08:08.084Z,5.54
2018-11-21T10:09:22.993Z,5.58
2018-11-21T10:10:38.325Z,5.7
2018-11-21T10:11:52.822Z,5.7
2018-11-21T10:13:07.638Z,5.54
2018-11-21T10:14:23.761Z,5.61
2018-11-21T10:15:37.765Z,5.58
2018-11-21T10:16:52.478Z,5.67
2018-11-21T10:18:07.323Z,5.64
2018-11-21T10:19:22.119Z,5.64
2018-11-21T10:20:36.905Z,5.76
2018-11-21T10:21:51.342Z,5.67
2018-11-21T10:23:05.626Z,5.65
2018-11-21T10:24:20.454Z,5.64
2018-11-21T10:25:35.225Z,5.74
2018-11-21T10:26:49.805Z,5.65
2018-11-21T10:28:04.250Z,5.73
2018-11-21T10:29:18.639Z,5.64
2018-11-21T10:35:59.230Z,5.73
2018-11-21T10:37:14.116Z,5.72
2018-11-21T10:38:28.998Z,5.73
2018-11-21T10:39:43.338Z,5.76
2018-11-21T10:41:07.373Z,5.77
2018-11-21T10:42:22.547Z,5.76
2018-11-21T10:43:36.769Z,5.64
2018-11-21T10:44:52.238Z,5.69
2018-11-21T10:46:07.245Z,5.64
2018-11-21T10:47:21.904Z,5.7
2018-11-21T10:48:37.337Z,5.74
2018-11-21T10:49:51.872Z,5.76
2018-11-21T10:51:06.336Z,5.77
2018-11-21T10:52:22.791Z,5.79
2018-11-21T10:53:42.178Z,5.87
2018-11-21T10:54:57.176Z,5.88
2018-11-21T10:56:11.545Z,5.91
2018-11-21T10:57:26.232Z,5.92
2018-11-21T10:58:40.436Z,5.95
2018-11-21T10:59:55.156Z,5.91
2018-11-21T11:01:10.186Z,5.98
2018-11-21T11:02:25.178Z,5.83
2018-11-21T11:03:39.421Z,5.97
2018-11-21T11:04:53.092Z,6.05
2018-11-21T11:06:08.128Z,6.16
2018-11-21T11:07:23.164Z,6.19
2018-11-21T11:08:38.246Z,5.99
2018-11-21T11:09:53.918Z,6.07
2018-11-21T11:11:08.972Z,6.02
2018-11-21T11:12:23.933Z,6.13
2018-11-21T11:13:42.521Z,6.05
2018-11-21T11:14:56.725Z,6.09
2018-11-21T11:16:11.247Z,5.88
2018-11-21T11:17:25.686Z,6.05
2018-11-21T11:18:39.879Z,6.16
2018-11-21T11:19:55.148Z,6.28
2018-11-21T11:21:12.674Z,6.17
2018-11-21T11:22:28.743Z,6.29
2018-11-21T11:23:43.847Z,6.29
2018-11-21T11:24:58.366Z,6.34
2018-11-21T11:26:13.269Z,6.32
2018-11-21T11:27:28.007Z,6.34
2018-11-21T11:28:43.930Z,6.35
2018-11-21T11:29:57.970Z,6.25
2018-11-21T11:31:12.412Z,6.28
2018-11-21T11:32:27.193Z,6.19
2018-11-21T11:33:43.975Z,6.29
2018-11-21T11:34:58.782Z,6.38
2018-11-21T11:36:13.238Z,6.44
2018-11-21T11:37:27.685Z,6.29
2018-11-21T11:38:42.266Z,6.25
2018-11-21T11:39:57.023Z,6.32
2018-11-21T11:41:11.745Z,6.41
2018-11-21T11:42:26.070Z,6.44
2018-11-21T11:43:40.571Z,6.43
2018-11-21T11:44:55.414Z,6.6
2018-11-21T11:46:10.286Z,6.65
2018-11-21T11:47:24.771Z,6.49
2018-11-21T11:48:39.249Z,6.49
2018-11-21T11:49:53.955Z,6.36
2018-11-21T11:51:23.738Z,6.32
2018-11-21T11:52:38.271Z,6.38
2018-11-21T11:53:52.767Z,6.38
2018-11-21T11:55:07.703Z,6.41
2018-11-21T11:56:22.659Z,6.49
2018-11-21T11:57:37.378Z,6.36
2018-11-21T12:00:26.172Z,6.49
2018-11-21T12:01:41.983Z,6.44
2018-11-21T12:02:57.907Z,6.34
2018-11-21T12:04:13.011Z,6.36
2018-11-21T12:05:28.015Z,6.32
2018-11-21T12:06:57.590Z,6.25
2018-11-21T12:08:12.345Z,6.32
2018-11-21T12:09:27.342Z,6.29
2018-11-21T12:10:43.081Z,6.34
2018-11-21T12:11:57.849Z,6.34
2018-11-21T12:13:17.066Z,6.43
2018-11-21T12:14:33.395Z,6.46
2018-11-21T12:15:47.565Z,6.52
2018-11-21T12:17:17.132Z,6.41
2018-11-21T12:18:32.532Z,6.52
2018-11-21T12:20:40.921Z,6.64
2018-11-21T12:21:57.043Z,6.47
2018-11-21T12:23:12.045Z,6.49
2018-11-21T12:24:28.013Z,6.38
2018-11-21T12:25:43.820Z,6.38
2018-11-21T12:26:59.594Z,6.36
2018-11-21T12:28:14.847Z,6.56
2018-11-21T12:29:31.949Z,6.57
